createdAt,value
2018-05-13T00:01:10.192Z,10.03
2018-05-13T00:07:05.230Z,9.25
2018-05-13T00:13:00.216Z,8.97
2018-05-13T00:18:55.213Z,9.46
2018-05-13T00:24:50.206Z,9.67
2018-05-13T00:30:45.212Z,8.76
2018-05-13T00:36:40.184Z,7.92
2018-05-13T00:42:35.158Z,7.45
2018-05-13T00:48:30.258Z,7.06
2018-05-13T00:54:25.155Z,7.4
2018-05-13T01:00:20.218Z,6.94
2018-05-13T01:06:15.210Z,6.99
2018-05-13T01:12:10.225Z,7.31
2018-05-13T01:18:05.188Z,5.83
2018-05-13T01:24:00.233Z,8.12
2018-05-13T01:29:55.203Z,9.57
2018-05-13T01:35:50.264Z,9.61
2018-05-13T01:41:45.245Z,9.74
2018-05-13T01:47:40.251Z,10.05
2018-05-13T01:53:35.197Z,9.45
2018-05-13T01:59:30.249Z,10.75
2018-05-13T02:05:25.242Z,10.92
2018-05-13T02:11:20.221Z,10.65
2018-05-13T02:17:15.344Z,11.43
2018-05-13T02:23:10.259Z,11.04
2018-05-13T02:29:05.243Z,11.98
2018-05-13T02:35:00.279Z,10.77
2018-05-13T02:40:55.255Z,10.37
2018-05-13T02:46:50.226Z,9.97
2018-05-13T02:52:45.259Z,10.23
2018-05-13T02:58:40.292Z,10.48
2018-05-13T03:04:35.251Z,10.87
2018-05-13T03:10:30.236Z,10.07
2018-05-13T03:16:25.277Z,10.86
2018-05-13T03:22:20.268Z,11.62
2018-05-13T03:28:15.256Z,11.66
2018-05-13T03:34:10.267Z,10.63
2018-05-13T03:40:05.319Z,9.84
2018-05-13T03:46:00.280Z,9.88
2018-05-13T03:51:55.315Z,11.13
2018-05-13T03:57:50.277Z,9.69
2018-05-13T04:03:45.339Z,11.18
2018-05-13T04:09:40.303Z,10.02
2018-05-13T04:15:35.344Z,10.35
2018-05-13T04:21:30.280Z,10.3
2018-05-13T04:27:25.325Z,9.5
2018-05-13T04:33:20.278Z,8.87
2018-05-13T04:39:15.305Z,9.89
2018-05-13T04:45:10.318Z,9.51
2018-05-13T04:51:05.289Z,9.37
2018-05-13T04:57:00.298Z,9.34
2018-05-13T05:02:55.293Z,9.65
2018-05-13T05:08:50.366Z,8.93
2018-05-13T05:14:45.352Z,10.29
2018-05-13T05:20:40.313Z,9.3
2018-05-13T05:26:35.345Z,9.98
2018-05-13T05:32:30.345Z,9.9
2018-05-13T05:38:25.342Z,9.32
2018-05-13T05:44:20.385Z,9.89
2018-05-13T05:50:15.409Z,10.04
2018-05-13T05:56:10.377Z,10.08
2018-05-13T06:02:05.405Z,10.04
2018-05-13T06:08:00.356Z,12.25
2018-05-13T06:13:55.353Z,11.73
2018-05-13T06:19:50.357Z,12.02
2018-05-13T06:25:45.387Z,13.63
2018-05-13T06:31:40.333Z,11.68
2018-05-13T06:37:35.379Z,12.89
2018-05-13T06:43:30.387Z,11.93
2018-05-13T06:49:25.394Z,10.71
2018-05-13T06:55:20.363Z,10.27
2018-05-13T07:01:15.386Z,10.55
2018-05-13T07:07:10.381Z,10.1
2018-05-13T07:13:05.419Z,10.73
2018-05-13T07:19:00.416Z,9.85
2018-05-13T07:24:55.390Z,10
2018-05-13T07:30:50.389Z,8.91
2018-05-13T07:36:45.407Z,8.27
2018-05-13T07:42:40.404Z,8.29
2018-05-13T07:48:35.411Z,6.77
2018-05-13T07:54:30.424Z,7.26
2018-05-13T08:00:25.419Z,7.41
2018-05-13T08:06:20.413Z,7.12
2018-05-13T08:12:15.438Z,8.11
2018-05-13T08:18:10.399Z,6.69
2018-05-13T08:24:05.501Z,6.72
2018-05-13T08:30:00.548Z,6.8
2018-05-13T08:35:55.466Z,7.06
2018-05-13T08:41:50.511Z,6.88
2018-05-13T08:47:45.420Z,7.35
2018-05-13T08:53:40.459Z,6.1
2018-05-13T08:59:35.572Z,6.21
2018-05-13T09:05:30.507Z,6.82
2018-05-13T09:11:25.480Z,6.61
2018-05-13T09:17:20.477Z,6.3
2018-05-13T09:23:15.487Z,6.6
2018-05-13T09:29:10.465Z,6.3
2018-05-13T09:35:05.489Z,5.88
2018-05-13T09:41:00.508Z,5.51
2018-05-13T09:46:55.507Z,6.08
2018-05-13T09:52:50.514Z,6.15
2018-05-13T09:58:45.493Z,5.73
2018-05-13T10:04:40.502Z,5.56
2018-05-13T10:10:35.510Z,5.54
2018-05-13T10:16:30.480Z,5.76
2018-05-13T10:22:25.485Z,5.44
2018-05-13T10:28:20.480Z,5.02
2018-05-13T10:34:15.500Z,5.03
2018-05-13T10:40:10.498Z,4.75
2018-05-13T10:46:05.520Z,4.83
2018-05-13T10:52:00.522Z,4.51
2018-05-13T10:57:55.529Z,4.87
2018-05-13T11:03:50.532Z,4.53
2018-05-13T11:09:45.523Z,4.9
2018-05-13T11:15:40.545Z,4.47
2018-05-13T11:21:35.522Z,4.33
2018-05-13T11:27:30.603Z,3.68
2018-05-13T11:33:25.548Z,4.25
2018-05-13T11:39:20.553Z,3.13
2018-05-13T11:45:15.568Z,3.54
2018-05-13T11:51:10.594Z,3.77
2018-05-13T11:57:05.563Z,3.54
2018-05-13T12:03:00.561Z,3.72
2018-05-13T12:08:55.554Z,3.44
2018-05-13T12:14:50.558Z,3.39
2018-05-13T12:20:45.581Z,2.83
2018-05-13T12:26:59.687Z,2.99
2018-05-13T12:32:35.538Z,3.01
2018-05-13T12:38:30.563Z,3.21
2018-05-13T12:44:25.579Z,3.14
2018-05-13T12:50:20.571Z,2.87
2018-05-13T12:56:15.612Z,3.3
2018-05-13T13:02:10.580Z,3.19
2018-05-13T13:08:05.569Z,3.28
2018-05-13T13:14:00.624Z,3.32
2018-05-13T13:19:55.623Z,3.74
2018-05-13T13:25:50.717Z,3.98
2018-05-13T13:31:45.580Z,4.17
2018-05-13T13:37:40.642Z,3.53
2018-05-13T13:43:35.648Z,3.32
2018-05-13T13:49:30.616Z,3.38
2018-05-13T13:55:25.609Z,2.84
2018-05-13T14:01:20.602Z,3.55
2018-05-13T14:07:15.635Z,3.08
2018-05-13T14:13:10.623Z,3.48
2018-05-13T14:19:05.609Z,3.59
2018-05-13T14:25:00.634Z,3.74
2018-05-13T14:30:55.639Z,3.72
2018-05-13T14:36:50.621Z,3.63
2018-05-13T14:42:45.625Z,4.1
2018-05-13T14:48:40.656Z,3.45
2018-05-13T14:54:35.649Z,3.49
2018-05-13T15:00:30.706Z,3.24
2018-05-13T15:06:25.656Z,3.3
2018-05-13T15:12:20.662Z,3.3
2018-05-13T15:18:15.661Z,2.92
2018-05-13T15:24:10.641Z,3.03
2018-05-13T15:30:05.654Z,3.65
2018-05-13T15:36:00.738Z,2.77
2018-05-13T15:41:55.676Z,3.15
2018-05-13T15:47:50.708Z,2.93
2018-05-13T15:53:45.685Z,3.66
2018-05-13T15:59:40.694Z,3.73
2018-05-13T16:05:35.732Z,3.46
2018-05-13T16:11:30.742Z,3.72
2018-05-13T16:17:25.711Z,4.06
2018-05-13T16:23:20.685Z,3.7
2018-05-13T16:29:15.697Z,4.35
2018-05-13T16:35:10.715Z,3.42
2018-05-13T16:41:05.722Z,3.48
2018-05-13T16:47:00.725Z,3.71
2018-05-13T16:52:55.730Z,2.93
2018-05-13T16:58:50.702Z,3.37
2018-05-13T17:04:45.758Z,3.08
2018-05-13T17:10:40.714Z,2.95
2018-05-13T17:16:35.759Z,2.53
2018-05-13T17:22:30.734Z,2.63
2018-05-13T17:28:25.705Z,3.1
2018-05-13T17:34:20.761Z,1.95
2018-05-13T17:40:15.728Z,2.48
2018-05-13T17:46:10.747Z,3.02
2018-05-13T17:52:05.725Z,3.55
2018-05-13T17:58:00.803Z,2.71
2018-05-13T18:03:55.741Z,1.27
2018-05-13T18:09:50.747Z,0.3
2018-05-13T18:15:45.819Z,0.31
2018-05-13T18:21:40.854Z,0.3
2018-05-13T18:27:35.804Z,0.3
2018-05-13T18:33:30.775Z,0.3
2018-05-13T18:39:25.799Z,0.3
2018-05-13T18:45:20.845Z,0.3
2018-05-13T18:51:15.851Z,0.3
2018-05-13T18:57:10.778Z,0.3
2018-05-13T19:03:05.830Z,0.29
2018-05-13T19:09:00.790Z,0.27
2018-05-13T19:14:55.772Z,0.3
2018-05-13T19:20:50.795Z,0.3
2018-05-13T19:26:45.841Z,0.3
2018-05-13T19:32:40.801Z,0.3
2018-05-13T19:38:35.787Z,0.3
2018-05-13T19:44:30.841Z,0.3
2018-05-13T19:50:25.788Z,0.3
2018-05-13T19:56:20.807Z,0.3
2018-05-13T20:02:15.830Z,0.3
2018-05-13T20:08:10.811Z,0.3
2018-05-13T20:14:05.810Z,0.29
2018-05-13T20:20:00.855Z,0.3
2018-05-13T20:25:55.814Z,0.3
2018-05-13T20:31:50.803Z,0.3
2018-05-13T20:37:45.822Z,0.3
2018-05-13T20:43:40.867Z,0.3
2018-05-13T20:49:35.827Z,0.22
2018-05-13T20:55:30.869Z,0.29
2018-05-13T21:01:25.839Z,0.3
2018-05-13T21:07:20.887Z,0.3
2018-05-13T21:13:15.899Z,0.3
2018-05-13T21:19:10.895Z,0.3
2018-05-13T21:25:05.864Z,0.3
2018-05-13T21:31:00.892Z,0.28
2018-05-13T21:36:55.868Z,0.3
2018-05-13T21:42:50.898Z,0.3
2018-05-13T21:48:45.897Z,0.3
2018-05-13T21:54:40.999Z,0.3
2018-05-13T22:00:35.894Z,0.3
2018-05-13T22:06:30.911Z,0.28
2018-05-13T22:12:25.858Z,0.3
2018-05-13T22:18:20.892Z,0.28
2018-05-13T22:24:15.933Z,0.3
2018-05-13T22:30:10.909Z,0.3
2018-05-13T22:36:05.883Z,0.3
2018-05-13T22:42:00.867Z,0.2
2018-05-13T22:47:55.902Z,0.3
2018-05-13T22:53:50.904Z,0.29
2018-05-13T22:59:45.925Z,0.3
2018-05-13T23:05:41.071Z,0.3
2018-05-13T23:11:35.906Z,0.3
2018-05-13T23:17:30.962Z,0.3
2018-05-13T23:23:25.937Z,0.3
2018-05-13T23:29:20.921Z,0.28
2018-05-13T23:35:15.942Z,0.3
2018-05-13T23:41:11.039Z,0.3
2018-05-13T23:47:05.985Z,0.3
2018-05-13T23:53:00.928Z,0.3
2018-05-13T23:58:55.915Z,0.3
